createdAt,value
2022-09-30T00:01:26.043Z,8.27
2022-09-30T00:04:38.994Z,7.18
2022-09-30T00:07:24.824Z,6.95
2022-09-30T00:10:10.863Z,6.65
2022-09-30T00:12:58.459Z,6.75
2022-09-30T00:15:47.171Z,7.03
2022-09-30T00:18:33.755Z,9.30
2022-09-30T00:21:19.536Z,7.53
2022-09-30T00:24:06.118Z,8.57
2022-09-30T00:26:52.375Z,9.15
2022-09-30T00:29:38.263Z,6.80
2022-09-30T00:32:24.432Z,9.45
2022-09-30T00:35:11.192Z,9.45
2022-09-30T00:37:57.128Z,8.20
2022-09-30T00:40:43.786Z,6.65
2022-09-30T00:43:46.597Z,10.00
2022-09-30T00:46:35.451Z,13.38
2022-09-30T00:49:25.344Z,7.32
2022-09-30T00:52:11.640Z,7.85
2022-09-30T00:54:59.767Z,7.43
2022-09-30T00:57:46.371Z,11.48
2022-09-30T01:00:32.538Z,8.18
2022-09-30T01:03:21.548Z,7.38
2022-09-30T01:06:07.815Z,9.68
2022-09-30T01:08:55.134Z,10.13
2022-09-30T01:11:40.996Z,8.90
2022-09-30T01:14:28.427Z,9.95
2022-09-30T01:17:47.894Z,7.35
2022-09-30T01:20:58.677Z,10.30
2022-09-30T01:24:09.991Z,8.38
2022-09-30T01:27:33.821Z,10.70
2022-09-30T01:30:48.432Z,7.97
2022-09-30T01:34:10.296Z,8.13
2022-09-30T01:37:16.443Z,7.97
2022-09-30T01:40:23.345Z,12.77
2022-09-30T01:43:31.110Z,8.00
2022-09-30T01:46:23.282Z,8.75
2022-09-30T01:49:12.732Z,14.00
2022-09-30T01:52:07.686Z,8.93
2022-09-30T01:55:03.635Z,8.43
2022-09-30T01:58:16.787Z,9.57
2022-09-30T02:01:08.793Z,7.65
2022-09-30T02:04:00.927Z,11.02
2022-09-30T02:06:56.839Z,9.38
2022-09-30T02:10:01.303Z,8.90
2022-09-30T02:15:41.339Z,9.57
2022-09-30T02:18:39.135Z,10.40
2022-09-30T02:21:31.325Z,8.85
2022-09-30T02:24:20.071Z,8.32
2022-09-30T02:27:13.188Z,8.07
2022-09-30T02:30:03.913Z,12.52
2022-09-30T02:33:06.840Z,9.48
2022-09-30T02:36:09.277Z,9.18
2022-09-30T02:39:05.965Z,9.25
2022-09-30T02:42:00.347Z,11.98
2022-09-30T02:44:51.897Z,8.63
2022-09-30T02:47:50.224Z,10.40
2022-09-30T02:50:56.213Z,9.07
2022-09-30T02:54:09.536Z,8.70
2022-09-30T02:57:22.262Z,10.32
2022-09-30T03:00:12.913Z,9.88
2022-09-30T03:03:09.305Z,9.77
2022-09-30T03:05:55.559Z,9.48
2022-09-30T03:08:42.124Z,9.02
2022-09-30T03:11:29.875Z,7.60
2022-09-30T03:14:32.054Z,8.40
2022-09-30T03:17:55.300Z,10.45
2022-09-30T03:21:05.536Z,11.77
2022-09-30T03:24:08.410Z,10.45
2022-09-30T03:27:12.633Z,11.18
2022-09-30T03:30:08.109Z,14.07
2022-09-30T03:33:12.786Z,10.75
2022-09-30T03:36:09.319Z,12.98
2022-09-30T03:39:15.239Z,9.77
2022-09-30T03:46:02.303Z,12.30
2022-09-30T03:48:52.649Z,13.15
2022-09-30T03:51:41.784Z,13.88
2022-09-30T03:54:27.943Z,14.40
2022-09-30T03:57:14.980Z,13.80
2022-09-30T04:00:01.761Z,12.52
2022-09-30T04:02:55.794Z,10.05
2022-09-30T04:05:47.131Z,13.18
2022-09-30T04:08:34.046Z,14.02
2022-09-30T04:11:23.642Z,14.73
2022-09-30T04:14:10.126Z,23.45
2022-09-30T04:16:56.589Z,25.83
2022-09-30T04:19:42.844Z,25.55
2022-09-30T04:22:28.722Z,29.20
2022-09-30T04:25:15.029Z,22.55
2022-09-30T04:28:03.951Z,30.70
2022-09-30T04:30:50.217Z,39.38
2022-09-30T04:33:36.160Z,43.90
2022-09-30T04:36:22.038Z,33.53
2022-09-30T04:39:08.025Z,43.92
2022-09-30T04:41:54.156Z,55.45
2022-09-30T04:44:40.075Z,45.88
2022-09-30T04:47:26.157Z,46.05
2022-09-30T04:50:13.287Z,44.70
2022-09-30T04:52:59.181Z,46.00
2022-09-30T04:55:45.735Z,66.93
2022-09-30T04:58:37.180Z,51.20
2022-09-30T05:01:23.489Z,53.97
2022-09-30T05:04:10.420Z,50.67
2022-09-30T05:06:56.476Z,48.58
2022-09-30T05:09:42.809Z,54.35
2022-09-30T05:12:28.861Z,56.72
2022-09-30T05:15:14.709Z,49.92
2022-09-30T05:18:00.549Z,99.03
2022-09-30T05:20:49.710Z,53.85
2022-09-30T05:23:35.967Z,66.55
2022-09-30T05:26:21.880Z,93.05
2022-09-30T05:29:09.063Z,66.15
2022-09-30T05:31:55.011Z,60.53
2022-09-30T05:34:41.277Z,43.63
2022-09-30T05:37:27.161Z,42.85
2022-09-30T05:40:12.971Z,39.17
2022-09-30T05:43:03.353Z,40.67
2022-09-30T05:45:54.453Z,39.65
2022-09-30T05:48:40.927Z,38.92
2022-09-30T05:51:27.122Z,40.55
2022-09-30T05:54:13.541Z,36.72
2022-09-30T05:57:00.822Z,39.15
2022-09-30T05:59:47.672Z,35.13
2022-09-30T06:02:34.023Z,38.17
2022-09-30T06:05:22.027Z,47.85
2022-09-30T06:08:08.866Z,41.05
2022-09-30T06:10:55.285Z,33.78
2022-09-30T06:13:42.115Z,35.85
2022-09-30T06:16:28.047Z,35.25
2022-09-30T06:19:14.520Z,31.42
2022-09-30T06:22:01.277Z,38.20
2022-09-30T06:24:50.389Z,35.47
2022-09-30T06:27:38.901Z,34.00
2022-09-30T06:30:24.924Z,35.25
2022-09-30T06:33:11.208Z,32.35
2022-09-30T06:35:57.637Z,39.55
2022-09-30T06:38:43.905Z,34.92
2022-09-30T06:41:30.382Z,29.20
2022-09-30T06:44:16.742Z,34.22
2022-09-30T06:47:02.888Z,34.13
2022-09-30T06:49:50.061Z,28.92
2022-09-30T06:52:36.466Z,34.83
2022-09-30T06:55:24.228Z,25.60
2022-09-30T06:58:17.625Z,27.67
2022-09-30T07:01:06.032Z,26.00
2022-09-30T07:03:57.850Z,30.33
2022-09-30T07:06:44.184Z,25.35
2022-09-30T07:09:32.070Z,34.53
2022-09-30T07:12:18.639Z,25.42
2022-09-30T07:15:05.112Z,24.45
2022-09-30T07:17:56.857Z,23.25
2022-09-30T07:20:49.111Z,22.98
2022-09-30T07:23:38.333Z,18.30
2022-09-30T07:26:25.482Z,23.05
2022-09-30T07:29:13.273Z,23.15
2022-09-30T07:31:59.574Z,18.00
2022-09-30T07:34:46.036Z,19.52
2022-09-30T07:37:35.879Z,19.98
2022-09-30T07:40:21.963Z,22.50
2022-09-30T07:43:08.293Z,19.17
2022-09-30T07:45:56.162Z,19.33
2022-09-30T07:48:47.004Z,20.23
2022-09-30T07:51:35.591Z,21.38
2022-09-30T07:54:26.778Z,21.95
2022-09-30T07:57:13.187Z,23.83
2022-09-30T08:00:04.974Z,22.95
2022-09-30T08:03:03.118Z,22.40
2022-09-30T08:05:49.123Z,25.55
2022-09-30T08:08:35.730Z,25.48
2022-09-30T08:11:22.569Z,28.27
2022-09-30T08:14:19.208Z,23.10
2022-09-30T08:17:05.508Z,19.38
2022-09-30T08:19:52.397Z,20.23
2022-09-30T08:22:38.461Z,23.25
2022-09-30T08:25:26.296Z,20.50
2022-09-30T08:28:13.816Z,21.45
2022-09-30T08:31:18.944Z,19.38
2022-09-30T08:34:04.970Z,22.65
2022-09-30T08:36:51.121Z,17.88
2022-09-30T08:39:38.595Z,15.25
2022-09-30T08:42:41.335Z,19.50
2022-09-30T08:45:39.429Z,17.33
2022-09-30T08:49:04.936Z,13.43
2022-09-30T08:51:53.572Z,14.13
2022-09-30T08:54:45.737Z,16.70
2022-09-30T08:57:45.066Z,14.63
2022-09-30T09:00:33.881Z,15.00
2022-09-30T09:03:20.804Z,14.02
2022-09-30T09:06:18.762Z,13.57
2022-09-30T09:09:04.798Z,15.32
2022-09-30T09:12:13.572Z,11.23
2022-09-30T09:14:59.499Z,12.73
2022-09-30T09:18:21.974Z,11.88
2022-09-30T09:21:45.154Z,11.23
2022-09-30T09:24:50.195Z,14.20
2022-09-30T09:27:45.163Z,11.40
2022-09-30T09:30:43.478Z,13.00
2022-09-30T09:33:36.414Z,12.93
2022-09-30T09:36:32.389Z,10.65
2022-09-30T09:39:28.487Z,10.73
2022-09-30T09:42:46.373Z,14.85
2022-09-30T09:45:44.704Z,11.77
2022-09-30T09:48:34.025Z,9.90
2022-09-30T09:51:34.174Z,10.75
2022-09-30T09:54:22.286Z,12.30
2022-09-30T09:57:24.765Z,9.50
2022-09-30T10:00:43.810Z,9.73
2022-09-30T10:03:38.260Z,7.07
2022-09-30T10:06:24.382Z,10.18
2022-09-30T10:09:23.989Z,9.02
2022-09-30T10:12:13.202Z,11.77
2022-09-30T10:15:02.252Z,8.75
2022-09-30T10:17:58.123Z,8.70
2022-09-30T10:20:52.691Z,9.00
2022-09-30T10:23:40.935Z,11.23
2022-09-30T10:26:28.678Z,9.25
2022-09-30T10:29:33.074Z,8.00
2022-09-30T10:32:19.617Z,9.77
2022-09-30T10:35:20.575Z,7.38
2022-09-30T10:38:12.824Z,8.93
2022-09-30T10:40:59.282Z,7.90
2022-09-30T10:43:51.477Z,8.43
2022-09-30T10:46:40.923Z,7.07
2022-09-30T10:49:39.065Z,9.70
2022-09-30T10:52:28.920Z,7.10
2022-09-30T10:55:21.704Z,6.38
2022-09-30T10:58:26.806Z,6.43
2022-09-30T11:01:30.328Z,7.70
2022-09-30T11:04:49.760Z,8.57
2022-09-30T11:07:56.844Z,7.60
2022-09-30T11:10:51.337Z,7.35
2022-09-30T11:13:43.447Z,7.50
2022-09-30T11:16:53.111Z,6.25
2022-09-30T11:19:54.509Z,7.00
2022-09-30T11:22:53.634Z,7.20
2022-09-30T11:25:46.404Z,8.43
2022-09-30T11:28:58.584Z,9.02
2022-09-30T11:31:59.978Z,6.35
2022-09-30T11:35:14.594Z,8.65
2022-09-30T11:38:03.832Z,7.22
2022-09-30T11:41:14.802Z,11.18
2022-09-30T11:44:11.344Z,7.75
2022-09-30T11:47:22.152Z,8.38
2022-09-30T11:50:11.842Z,5.85
2022-09-30T11:53:18.940Z,6.05
2022-09-30T11:56:04.883Z,6.03
2022-09-30T11:58:56.401Z,4.55
2022-09-30T12:01:45.978Z,3.65
2022-09-30T12:04:38.884Z,4.45
2022-09-30T12:07:39.360Z,7.05
2022-09-30T12:10:54.000Z,6.00
2022-09-30T12:13:51.863Z,4.22
2022-09-30T12:16:38.786Z,4.45
2022-09-30T12:19:47.458Z,3.53
2022-09-30T12:22:40.181Z,4.28
2022-09-30T12:25:37.840Z,3.53
2022-09-30T12:29:17.515Z,5.80
2022-09-30T12:32:23.653Z,4.93
2022-09-30T12:35:09.831Z,4.65
2022-09-30T12:38:33.555Z,3.13
2022-09-30T12:41:34.020Z,3.95
2022-09-30T12:44:58.870Z,4.05
2022-09-30T12:47:50.524Z,3.25
2022-09-30T12:50:44.868Z,3.88
2022-09-30T12:53:40.858Z,3.33
2022-09-30T12:56:30.244Z,3.53
2022-09-30T12:59:24.076Z,4.38
2022-09-30T13:02:31.782Z,3.97
2022-09-30T13:05:30.451Z,4.38
2022-09-30T13:08:16.187Z,4.78
2022-09-30T13:11:06.224Z,5.35
2022-09-30T13:14:36.102Z,2.65
2022-09-30T13:17:29.315Z,4.00
2022-09-30T13:21:03.436Z,4.38
2022-09-30T13:23:51.568Z,4.35
2022-09-30T13:26:40.016Z,2.35
2022-09-30T13:29:26.181Z,4.65
2022-09-30T13:32:12.254Z,2.38
2022-09-30T13:34:58.441Z,2.80
2022-09-30T13:37:44.490Z,3.60
2022-09-30T13:40:50.062Z,7.25
2022-09-30T13:43:49.758Z,3.80
2022-09-30T13:46:44.283Z,6.35
2022-09-30T13:49:43.654Z,5.68
2022-09-30T13:52:33.104Z,6.95
2022-09-30T13:55:23.614Z,4.32
2022-09-30T13:58:45.816Z,3.00
2022-09-30T14:02:09.663Z,5.10
2022-09-30T14:05:53.468Z,6.10
2022-09-30T14:08:48.110Z,4.82
2022-09-30T14:11:59.320Z,5.53
2022-09-30T14:15:22.676Z,4.25
2022-09-30T14:18:14.485Z,4.95
2022-09-30T14:21:34.962Z,6.05
2022-09-30T14:24:36.631Z,5.32
2022-09-30T14:27:41.249Z,5.80
2022-09-30T14:30:29.475Z,6.85
2022-09-30T14:33:25.401Z,7.97
2022-09-30T14:36:18.895Z,4.82
2022-09-30T14:39:10.941Z,4.10
2022-09-30T14:42:01.360Z,5.95
2022-09-30T14:44:49.337Z,3.95
2022-09-30T14:47:40.473Z,5.72
2022-09-30T14:50:36.509Z,5.63
2022-09-30T14:53:30.398Z,5.13
2022-09-30T14:56:36.812Z,8.13
2022-09-30T14:59:31.744Z,5.82
2022-09-30T15:02:21.341Z,6.78
2022-09-30T15:05:12.544Z,5.22
2022-09-30T15:07:58.932Z,6.90
2022-09-30T15:10:50.154Z,3.88
2022-09-30T15:13:39.354Z,8.13
2022-09-30T15:16:27.227Z,6.97
2022-09-30T15:19:20.005Z,5.95
2022-09-30T15:22:09.861Z,7.68
2022-09-30T15:24:58.119Z,8.73
2022-09-30T15:27:45.218Z,6.72
2022-09-30T15:30:33.028Z,5.93
2022-09-30T15:33:23.706Z,8.82
2022-09-30T15:36:18.770Z,6.05
2022-09-30T15:39:06.010Z,7.25
2022-09-30T15:41:51.995Z,11.18
2022-09-30T15:44:39.704Z,8.00
2022-09-30T15:47:27.558Z,10.68
2022-09-30T15:50:39.658Z,9.15
2022-09-30T15:53:37.978Z,11.57
2022-09-30T15:56:25.950Z,5.63
2022-09-30T15:59:16.088Z,6.68
2022-09-30T16:02:03.029Z,11.13
2022-09-30T16:04:52.234Z,8.45
2022-09-30T16:07:38.527Z,9.20
2022-09-30T16:10:24.349Z,8.93
2022-09-30T16:13:15.638Z,11.40
2022-09-30T16:16:02.233Z,8.70
2022-09-30T16:18:49.834Z,10.20
2022-09-30T16:21:50.436Z,13.43
2022-09-30T16:24:41.896Z,8.75
2022-09-30T16:27:30.318Z,11.15
2022-09-30T16:30:20.335Z,8.75
2022-09-30T16:33:06.822Z,10.75
2022-09-30T16:35:53.308Z,11.32
2022-09-30T16:38:39.297Z,8.88
2022-09-30T16:41:26.159Z,10.85
2022-09-30T16:44:13.096Z,10.23
2022-09-30T16:46:59.307Z,8.18
2022-09-30T16:49:51.515Z,12.00
2022-09-30T16:52:38.200Z,9.73
2022-09-30T16:55:25.860Z,9.15
2022-09-30T16:58:13.339Z,8.65
2022-09-30T17:01:04.472Z,11.68
2022-09-30T17:03:52.711Z,12.73
2022-09-30T17:06:39.085Z,13.13
2022-09-30T17:09:25.328Z,11.85
2022-09-30T17:12:12.192Z,15.55
2022-09-30T17:14:58.176Z,10.65
2022-09-30T17:17:44.027Z,12.55
2022-09-30T17:20:29.871Z,13.25
2022-09-30T17:23:15.977Z,8.80
2022-09-30T17:26:07.928Z,9.35
2022-09-30T17:29:00.284Z,12.88
2022-09-30T17:31:55.655Z,14.18
2022-09-30T17:34:41.880Z,14.32
2022-09-30T17:37:34.081Z,14.55
2022-09-30T17:40:38.358Z,6.55
2022-09-30T17:46:12.965Z,10.23
2022-09-30T17:49:24.779Z,11.63
2022-09-30T17:52:14.467Z,8.88
2022-09-30T17:55:01.417Z,10.27
2022-09-30T17:57:47.564Z,4.88
2022-09-30T18:00:33.653Z,6.68
2022-09-30T18:03:19.991Z,11.95
2022-09-30T18:06:06.452Z,7.50
2022-09-30T18:08:55.983Z,7.75
2022-09-30T18:11:44.386Z,10.05
2022-09-30T18:14:36.026Z,11.45
2022-09-30T18:17:26.235Z,8.77
2022-09-30T18:20:13.011Z,10.20
2022-09-30T18:22:59.006Z,8.32
2022-09-30T18:25:46.565Z,6.15
2022-09-30T18:28:33.434Z,7.63
2022-09-30T18:31:30.994Z,10.98
2022-09-30T18:34:17.326Z,7.78
2022-09-30T18:37:06.666Z,7.97
2022-09-30T18:39:52.830Z,9.60
2022-09-30T18:42:41.187Z,9.20
2022-09-30T18:45:31.366Z,9.90
2022-09-30T18:48:21.362Z,8.63
2022-09-30T18:51:11.123Z,7.35
2022-09-30T18:53:59.839Z,4.95
2022-09-30T18:56:47.206Z,13.23
2022-09-30T18:59:33.043Z,7.72
2022-09-30T19:02:19.225Z,5.15
2022-09-30T19:05:06.556Z,3.25
2022-09-30T19:07:53.795Z,3.25
2022-09-30T19:10:45.058Z,5.32
2022-09-30T19:13:31.530Z,4.25
2022-09-30T19:16:18.398Z,5.38
2022-09-30T19:19:04.865Z,6.45
2022-09-30T19:21:51.005Z,4.22
2022-09-30T19:24:40.212Z,3.58
2022-09-30T19:27:26.963Z,3.90
2022-09-30T19:30:14.496Z,3.13
2022-09-30T19:33:00.783Z,7.88
2022-09-30T19:35:49.156Z,4.22
2022-09-30T19:38:48.030Z,3.10
2022-09-30T19:41:34.723Z,3.25
2022-09-30T19:44:24.244Z,2.97
2022-09-30T19:47:11.250Z,3.40
2022-09-30T19:49:59.510Z,5.20
2022-09-30T19:52:56.046Z,4.82
2022-09-30T19:55:50.424Z,3.40
2022-09-30T19:58:37.365Z,2.80
2022-09-30T20:01:25.362Z,2.95
2022-09-30T20:04:15.096Z,5.95
2022-09-30T20:07:01.555Z,4.47
2022-09-30T20:09:49.518Z,3.78
2022-09-30T20:12:35.554Z,6.57
2022-09-30T20:15:45.982Z,3.53
2022-09-30T20:18:33.784Z,5.10
2022-09-30T20:21:20.149Z,2.95
2022-09-30T20:24:06.184Z,2.58
2022-09-30T20:26:55.585Z,2.42
2022-09-30T20:29:42.028Z,3.67
2022-09-30T20:32:30.768Z,3.40
2022-09-30T20:35:17.369Z,3.63
2022-09-30T20:38:04.310Z,3.13
2022-09-30T20:41:02.104Z,1.50
2022-09-30T20:43:54.221Z,2.28
2022-09-30T20:46:46.352Z,2.08
2022-09-30T20:49:38.315Z,1.85
2022-09-30T20:52:28.849Z,1.17
2022-09-30T20:55:15.186Z,2.47
2022-09-30T20:58:01.309Z,4.28
2022-09-30T21:00:47.834Z,1.30
2022-09-30T21:03:35.967Z,1.05
2022-09-30T21:06:26.743Z,1.42
2022-09-30T21:09:13.275Z,1.02
2022-09-30T21:12:00.333Z,1.52
2022-09-30T21:14:46.681Z,2.35
2022-09-30T21:17:32.996Z,1.00
2022-09-30T21:20:18.933Z,1.23
2022-09-30T21:23:07.998Z,1.70
2022-09-30T21:26:01.970Z,1.13
2022-09-30T21:28:50.788Z,1.25
2022-09-30T21:31:38.134Z,2.35
2022-09-30T21:34:24.269Z,1.08
2022-09-30T21:37:12.870Z,1.45
2022-09-30T21:39:59.812Z,2.03
2022-09-30T21:42:45.994Z,0.88
2022-09-30T21:45:31.969Z,2.38
2022-09-30T21:48:20.562Z,3.42
2022-09-30T21:51:08.240Z,1.73
2022-09-30T21:53:54.194Z,0.73
2022-09-30T21:56:42.329Z,1.42
2022-09-30T21:59:28.491Z,2.10
2022-09-30T22:02:14.599Z,2.70
2022-09-30T22:05:01.173Z,1.73
2022-09-30T22:07:47.826Z,3.38
2022-09-30T22:10:34.370Z,1.65
2022-09-30T22:13:20.734Z,3.88
2022-09-30T22:16:11.214Z,2.70
2022-09-30T22:19:00.532Z,3.55
2022-09-30T22:21:46.855Z,2.15
2022-09-30T22:24:33.509Z,3.17
2022-09-30T22:27:22.019Z,2.08
2022-09-30T22:30:09.140Z,3.92
2022-09-30T22:33:13.522Z,2.47
2022-09-30T22:36:17.815Z,4.20
2022-09-30T22:39:03.737Z,2.92
2022-09-30T22:41:55.432Z,4.68
2022-09-30T22:44:42.192Z,4.07
2022-09-30T22:47:28.692Z,4.88
2022-09-30T22:50:15.407Z,5.68
2022-09-30T22:53:01.801Z,5.15
2022-09-30T22:55:48.087Z,5.13
2022-09-30T22:58:36.904Z,6.63
2022-09-30T23:01:23.002Z,3.80
2022-09-30T23:04:09.520Z,5.00
2022-09-30T23:06:55.712Z,4.50
2022-09-30T23:09:42.033Z,4.13
2022-09-30T23:12:29.560Z,8.20
2022-09-30T23:15:15.696Z,6.80
2022-09-30T23:18:01.644Z,6.45
2022-09-30T23:20:55.993Z,5.80
2022-09-30T23:23:42.229Z,9.48
2022-09-30T23:26:29.803Z,9.88
2022-09-30T23:29:15.831Z,9.25
2022-09-30T23:32:01.996Z,5.80
2022-09-30T23:34:48.481Z,7.22
2022-09-30T23:37:34.405Z,14.23
2022-09-30T23:40:20.423Z,10.57
2022-09-30T23:43:06.691Z,8.80
2022-09-30T23:45:52.634Z,9.93
2022-09-30T23:48:38.678Z,12.82
2022-09-30T23:51:24.500Z,12.23
2022-09-30T23:54:10.573Z,12.05
2022-09-30T23:56:56.586Z,9.30
2022-09-30T23:59:43.131Z,9.80
